sensor_id;sensor_type;location;lat;lon;timestamp;pressure;altitude;pressure_sealevel;temperature;humidity
22031;BME280;11179;52.106;21.024;2023-02-26T00:02:14;98996.34;;;1.66;67.45
22031;BME280;11179;52.106;21.024;2023-02-26T00:04:40;99007.19;;;1.66;67.33
22031;BME280;11179;52.106;21.024;2023-02-26T00:07:05;99016.34;;;1.65;67.13
22031;BME280;11179;52.106;21.024;2023-02-26T00:09:31;99025.97;;;1.61;67.15
22031;BME280;11179;52.106;21.024;2023-02-26T00:11:57;99030.09;;;1.64;67.01
22031;BME280;11179;52.106;21.024;2023-02-26T00:14:23;99037.16;;;1.65;66.83
22031;BME280;11179;52.106;21.024;2023-02-26T00:19:18;99044.69;;;1.63;66.80
22031;BME280;11179;52.106;21.024;2023-02-26T00:21:44;99047.13;;;1.52;66.56
22031;BME280;11179;52.106;21.024;2023-02-26T00:24:09;99053.22;;;1.48;66.65
22031;BME280;11179;52.106;21.024;2023-02-26T00:26:35;99047.47;;;1.44;66.66
22031;BME280;11179;52.106;21.024;2023-02-26T00:29:02;99046.66;;;1.44;66.57
22031;BME280;11179;52.106;21.024;2023-02-26T00:31:27;99059.25;;;1.50;66.60
22031;BME280;11179;52.106;21.024;2023-02-26T00:33:54;99057.81;;;1.47;66.55
22031;BME280;11179;52.106;21.024;2023-02-26T00:38:54;99057.59;;;1.49;66.43
22031;BME280;11179;52.106;21.024;2023-02-26T00:41:21;99066.31;;;1.51;66.31
22031;BME280;11179;52.106;21.024;2023-02-26T00:43:47;99066.53;;;1.49;66.18
22031;BME280;11179;52.106;21.024;2023-02-26T00:46:21;99069.81;;;1.40;65.97
22031;BME280;11179;52.106;21.024;2023-02-26T00:49:02;99070.03;;;1.38;66.10
22031;BME280;11179;52.106;21.024;2023-02-26T00:51:57;99074.97;;;1.41;66.14
22031;BME280;11179;52.106;21.024;2023-02-26T00:54:25;99081.22;;;1.42;66.03
22031;BME280;11179;52.106;21.024;2023-02-26T00:56:52;99072.97;;;1.37;65.87
22031;BME280;11179;52.106;21.024;2023-02-26T00:59:19;99076.00;;;1.29;65.77
22031;BME280;11179;52.106;21.024;2023-02-26T01:01:45;99075.25;;;1.21;65.69
22031;BME280;11179;52.106;21.024;2023-02-26T01:04:11;99083.25;;;1.16;65.82
22031;BME280;11179;52.106;21.024;2023-02-26T01:06:45;99091.13;;;1.18;65.61
22031;BME280;11179;52.106;21.024;2023-02-26T01:11:45;99100.97;;;1.12;65.00
22031;BME280;11179;52.106;21.024;2023-02-26T01:14:10;99106.59;;;1.11;65.08
22031;BME280;11179;52.106;21.024;2023-02-26T01:16:43;99105.88;;;1.04;64.79
22031;BME280;11179;52.106;21.024;2023-02-26T01:22:07;99123.34;;;1.01;64.52
22031;BME280;11179;52.106;21.024;2023-02-26T01:24:34;99133.34;;;1.01;64.58
22031;BME280;11179;52.106;21.024;2023-02-26T01:27:01;99145.81;;;1.02;64.25
22031;BME280;11179;52.106;21.024;2023-02-26T01:29:26;99147.91;;;1.00;64.26
22031;BME280;11179;52.106;21.024;2023-02-26T01:31:56;99145.88;;;0.95;63.91
22031;BME280;11179;52.106;21.024;2023-02-26T01:37:17;99154.19;;;0.94;63.81
22031;BME280;11179;52.106;21.024;2023-02-26T01:39:53;99160.81;;;0.98;63.80
22031;BME280;11179;52.106;21.024;2023-02-26T01:42:26;99164.56;;;0.97;63.63
22031;BME280;11179;52.106;21.024;2023-02-26T01:45:19;99176.28;;;0.91;63.62
22031;BME280;11179;52.106;21.024;2023-02-26T01:47:50;99174.84;;;0.88;63.39
22031;BME280;11179;52.106;21.024;2023-02-26T01:50:20;99190.47;;;0.86;63.23
22031;BME280;11179;52.106;21.024;2023-02-26T01:55:23;99199.19;;;0.88;63.13
22031;BME280;11179;52.106;21.024;2023-02-26T01:57:51;99214.34;;;0.89;63.13
22031;BME280;11179;52.106;21.024;2023-02-26T02:00:17;99214.78;;;0.86;63.05
22031;BME280;11179;52.106;21.024;2023-02-26T02:02:43;99212.50;;;0.83;62.96
22031;BME280;11179;52.106;21.024;2023-02-26T02:05:24;99218.97;;;0.82;62.76
22031;BME280;11179;52.106;21.024;2023-02-26T02:07:50;99237.06;;;0.81;62.58
22031;BME280;11179;52.106;21.024;2023-02-26T02:10:16;99227.97;;;0.76;62.45
22031;BME280;11179;52.106;21.024;2023-02-26T02:15:41;99246.22;;;0.80;62.54
22031;BME280;11179;52.106;21.024;2023-02-26T02:18:17;99251.56;;;0.87;62.12
22031;BME280;11179;52.106;21.024;2023-02-26T02:32:33;99265.72;;;0.82;62.24
22031;BME280;11179;52.106;21.024;2023-02-26T02:35:19;99275.34;;;0.78;62.12
22031;BME280;11179;52.106;21.024;2023-02-26T02:40:29;99275.38;;;0.72;62.13
22031;BME280;11179;52.106;21.024;2023-02-26T02:43:09;99290.78;;;0.71;62.14
22031;BME280;11179;52.106;21.024;2023-02-26T02:45:59;99287.84;;;0.73;61.92
22031;BME280;11179;52.106;21.024;2023-02-26T02:48:43;99301.34;;;0.73;62.23
22031;BME280;11179;52.106;21.024;2023-02-26T02:51:15;99299.69;;;0.72;62.20
22031;BME280;11179;52.106;21.024;2023-02-26T02:53:51;99301.16;;;0.74;62.11
22031;BME280;11179;52.106;21.024;2023-02-26T02:56:22;99309.53;;;0.66;62.01
22031;BME280;11179;52.106;21.024;2023-02-26T02:58:55;99317.84;;;0.65;61.75
22031;BME280;11179;52.106;21.024;2023-02-26T03:01:23;99322.66;;;0.63;61.64
22031;BME280;11179;52.106;21.024;2023-02-26T03:03:56;99330.97;;;0.61;61.35
22031;BME280;11179;52.106;21.024;2023-02-26T03:06:23;99325.56;;;0.61;61.60
22031;BME280;11179;52.106;21.024;2023-02-26T03:08:49;99339.00;;;0.68;61.58
22031;BME280;11179;52.106;21.024;2023-02-26T03:11:15;99343.16;;;0.70;61.36
22031;BME280;11179;52.106;21.024;2023-02-26T03:13:40;99344.88;;;0.65;61.18
22031;BME280;11179;52.106;21.024;2023-02-26T03:16:16;99350.28;;;0.65;61.26
22031;BME280;11179;52.106;21.024;2023-02-26T03:19:05;99363.38;;;0.61;61.01
22031;BME280;11179;52.106;21.024;2023-02-26T03:24:34;99362.72;;;0.66;60.94
22031;BME280;11179;52.106;21.024;2023-02-26T03:27:09;99377.22;;;0.71;61.12
22031;BME280;11179;52.106;21.024;2023-02-26T03:29:52;99372.66;;;0.72;60.96
22031;BME280;11179;52.106;21.024;2023-02-26T03:32:30;99385.13;;;0.73;61.19
22031;BME280;11179;52.106;21.024;2023-02-26T03:35:06;99395.09;;;0.72;61.30
22031;BME280;11179;52.106;21.024;2023-02-26T03:37:37;99395.09;;;0.72;61.30
22031;BME280;11179;52.106;21.024;2023-02-26T03:40:19;99395.72;;;0.74;61.42
22031;BME280;11179;52.106;21.024;2023-02-26T03:43:11;99393.00;;;0.74;61.33
22031;BME280;11179;52.106;21.024;2023-02-26T03:45:40;99409.16;;;0.81;61.34
22031;BME280;11179;52.106;21.024;2023-02-26T03:48:09;99416.22;;;0.82;61.21
22031;BME280;11179;52.106;21.024;2023-02-26T03:50:39;99407.28;;;0.81;61.07
22031;BME280;11179;52.106;21.024;2023-02-26T03:53:09;99412.47;;;0.83;61.54
22031;BME280;11179;52.106;21.024;2023-02-26T03:56:21;99416.06;;;0.77;61.33
22031;BME280;11179;52.106;21.024;2023-02-26T03:58:45;99421.25;;;0.78;61.46
22031;BME280;11179;52.106;21.024;2023-02-26T04:01:20;99420.25;;;0.73;61.32
22031;BME280;11179;52.106;21.024;2023-02-26T04:04:09;99428.34;;;0.73;61.43
22031;BME280;11179;52.106;21.024;2023-02-26T04:06:36;99436.44;;;0.73;61.18
22031;BME280;11179;52.106;21.024;2023-02-26T04:09:03;99437.50;;;0.72;61.51
22031;BME280;11179;52.106;21.024;2023-02-26T04:11:29;99441.84;;;0.73;61.32
22031;BME280;11179;52.106;21.024;2023-02-26T04:13:55;99430.81;;;0.74;61.59
22031;BME280;11179;52.106;21.024;2023-02-26T04:16:21;99441.22;;;0.71;61.49
22031;BME280;11179;52.106;21.024;2023-02-26T04:18:47;99446.22;;;0.74;61.29
22031;BME280;11179;52.106;21.024;2023-02-26T04:21:14;99446.63;;;0.71;61.42
22031;BME280;11179;52.106;21.024;2023-02-26T04:23:40;99450.16;;;0.71;61.45
22031;BME280;11179;52.106;21.024;2023-02-26T04:26:06;99459.31;;;0.70;61.47
22031;BME280;11179;52.106;21.024;2023-02-26T04:28:31;99464.06;;;0.75;61.31
22031;BME280;11179;52.106;21.024;2023-02-26T04:30:57;99475.94;;;0.74;61.28
22031;BME280;11179;52.106;21.024;2023-02-26T04:33:22;99467.41;;;0.70;61.19
22031;BME280;11179;52.106;21.024;2023-02-26T04:35:48;99469.69;;;0.73;61.11
22031;BME280;11179;52.106;21.024;2023-02-26T04:38:13;99469.69;;;0.73;61.24
22031;BME280;11179;52.106;21.024;2023-02-26T04:40:38;99477.19;;;0.71;61.84
22031;BME280;11179;52.106;21.024;2023-02-26T04:43:05;99478.66;;;0.67;61.07
22031;BME280;11179;52.106;21.024;2023-02-26T04:45:30;99479.47;;;0.68;61.16
22031;BME280;11179;52.106;21.024;2023-02-26T04:47:56;99480.53;;;0.67;61.10
22031;BME280;11179;52.106;21.024;2023-02-26T04:50:21;99481.97;;;0.69;61.17
22031;BME280;11179;52.106;21.024;2023-02-26T04:52:46;99468.69;;;0.68;61.03
22031;BME280;11179;52.106;21.024;2023-02-26T04:55:12;99485.69;;;0.75;61.31
22031;BME280;11179;52.106;21.024;2023-02-26T04:57:37;99485.69;;;0.75;60.98
22031;BME280;11179;52.106;21.024;2023-02-26T05:00:03;99486.53;;;0.75;60.71
22031;BME280;11179;52.106;21.024;2023-02-26T05:02:31;99493.41;;;0.71;60.95
22031;BME280;11179;52.106;21.024;2023-02-26T05:04:56;99495.25;;;0.71;61.08
22031;BME280;11179;52.106;21.024;2023-02-26T05:07:22;99501.50;;;0.71;61.10
22031;BME280;11179;52.106;21.024;2023-02-26T05:09:47;99498.59;;;0.73;60.92
22031;BME280;11179;52.106;21.024;2023-02-26T05:12:12;99511.28;;;0.72;60.87
22031;BME280;11179;52.106;21.024;2023-02-26T05:14:38;99510.84;;;0.69;60.62
22031;BME280;11179;52.106;21.024;2023-02-26T05:17:03;99518.97;;;0.69;60.70
22031;BME280;11179;52.106;21.024;2023-02-26T05:19:28;99518.75;;;0.70;60.63
22031;BME280;11179;52.106;21.024;2023-02-26T05:21:53;99522.06;;;0.72;60.49
22031;BME280;11179;52.106;21.024;2023-02-26T05:24:19;99531.47;;;0.63;60.36
22031;BME280;11179;52.106;21.024;2023-02-26T05:26:44;99536.50;;;0.46;60.52
22031;BME280;11179;52.106;21.024;2023-02-26T05:29:10;99542.59;;;0.29;60.61
22031;BME280;11179;52.106;21.024;2023-02-26T05:31:36;99554.84;;;0.31;60.52
22031;BME280;11179;52.106;21.024;2023-02-26T05:34:02;99558.16;;;0.27;60.44
22031;BME280;11179;52.106;21.024;2023-02-26T05:36:27;99556.94;;;0.23;60.63
22031;BME280;11179;52.106;21.024;2023-02-26T05:38:52;99571.47;;;0.22;60.61
22031;BME280;11179;52.106;21.024;2023-02-26T05:41:18;99577.06;;;0.27;60.83
22031;BME280;11179;52.106;21.024;2023-02-26T05:43:43;99574.97;;;0.29;60.70
22031;BME280;11179;52.106;21.024;2023-02-26T05:46:08;99581.41;;;0.34;60.55
22031;BME280;11179;52.106;21.024;2023-02-26T05:48:34;99585.97;;;0.40;60.84
22031;BME280;11179;52.106;21.024;2023-02-26T05:50:59;99584.13;;;0.34;60.67
22031;BME280;11179;52.106;21.024;2023-02-26T05:53:24;99595.94;;;0.40;60.66
22031;BME280;11179;52.106;21.024;2023-02-26T05:55:52;99605.91;;;0.46;61.05
22031;BME280;11179;52.106;21.024;2023-02-26T05:58:17;99607.97;;;0.50;60.95
22031;BME280;11179;52.106;21.024;2023-02-26T06:00:42;99617.75;;;0.52;60.95
22031;BME280;11179;52.106;21.024;2023-02-26T06:03:08;99617.31;;;0.55;60.97
22031;BME280;11179;52.106;21.024;2023-02-26T06:05:33;99620.88;;;0.48;61.21
22031;BME280;11179;52.106;21.024;2023-02-26T06:08:00;99628.75;;;0.50;61.15
22031;BME280;11179;52.106;21.024;2023-02-26T06:10:25;99630.81;;;0.55;61.35
22031;BME280;11179;52.106;21.024;2023-02-26T06:12:51;99630.41;;;0.51;61.23
22031;BME280;11179;52.106;21.024;2023-02-26T06:15:16;99637.06;;;0.48;61.53
22031;BME280;11179;52.106;21.024;2023-02-26T06:17:41;99639.75;;;0.48;61.41
22031;BME280;11179;52.106;21.024;2023-02-26T06:20:08;99650.38;;;0.50;61.53
22031;BME280;11179;52.106;21.024;2023-02-26T06:22:33;99649.94;;;0.46;61.78
22031;BME280;11179;52.106;21.024;2023-02-26T06:24:58;99661.19;;;0.37;61.16
22031;BME280;11179;52.106;21.024;2023-02-26T06:27:24;99670.31;;;0.23;60.95
22031;BME280;11179;52.106;21.024;2023-02-26T06:29:49;99683.59;;;0.18;60.65
22031;BME280;11179;52.106;21.024;2023-02-26T06:32:15;99680.72;;;0.12;60.29
22031;BME280;11179;52.106;21.024;2023-02-26T06:34:40;99687.75;;;0.13;59.96
22031;BME280;11179;52.106;21.024;2023-02-26T06:37:06;99697.53;;;0.08;59.18
22031;BME280;11179;52.106;21.024;2023-02-26T06:39:31;99705.00;;;0.12;59.29
22031;BME280;11179;52.106;21.024;2023-02-26T06:41:56;99705.00;;;0.12;58.92
22031;BME280;11179;52.106;21.024;2023-02-26T06:44:22;99712.28;;;0.12;58.53
22031;BME280;11179;52.106;21.024;2023-02-26T06:46:47;99711.44;;;0.11;58.47
22031;BME280;11179;52.106;21.024;2023-02-26T06:49:13;99721.81;;;0.08;58.54
22031;BME280;11179;52.106;21.024;2023-02-26T06:51:39;99731.78;;;0.07;58.52
22031;BME280;11179;52.106;21.024;2023-02-26T06:54:04;99724.69;;;-0.00;58.31
22031;BME280;11179;52.106;21.024;2023-02-26T06:56:29;99743.59;;;-0.00;58.33
22031;BME280;11179;52.106;21.024;2023-02-26T06:58:55;99755.00;;;0.02;57.82
22031;BME280;11179;52.106;21.024;2023-02-26T07:01:20;99755.84;;;-0.04;58.30
22031;BME280;11179;52.106;21.024;2023-02-26T07:03:45;99756.25;;;-0.07;58.22
22031;BME280;11179;52.106;21.024;2023-02-26T07:06:11;99764.97;;;-0.05;58.06
22031;BME280;11179;52.106;21.024;2023-02-26T07:08:37;99772.88;;;-0.04;58.05
22031;BME280;11179;52.106;21.024;2023-02-26T07:11:03;99776.19;;;-0.02;58.11
22031;BME280;11179;52.106;21.024;2023-02-26T07:13:29;99772.25;;;-0.06;57.82
22031;BME280;11179;52.106;21.024;2023-02-26T07:15:54;99772.88;;;-0.04;57.89
22031;BME280;11179;52.106;21.024;2023-02-26T07:18:19;99779.72;;;-0.01;57.35
22031;BME280;11179;52.106;21.024;2023-02-26T07:20:48;99772.25;;;0.01;57.72
22031;BME280;11179;52.106;21.024;2023-02-26T07:23:13;99780.13;;;0.02;57.59
22031;BME280;11179;52.106;21.024;2023-02-26T07:25:38;99792.00;;;0.08;57.53
22031;BME280;11179;52.106;21.024;2023-02-26T07:28:04;99802.59;;;0.09;57.56
22031;BME280;11179;52.106;21.024;2023-02-26T07:30:29;99799.69;;;0.11;57.14
22031;BME280;11179;52.106;21.024;2023-02-26T07:32:55;99813.19;;;0.11;57.10
22031;BME280;11179;52.106;21.024;2023-02-26T07:35:20;99807.16;;;0.09;57.06
22031;BME280;11179;52.106;21.024;2023-02-26T07:37:46;99815.03;;;0.04;56.32
22031;BME280;11179;52.106;21.024;2023-02-26T07:40:12;99824.19;;;0.09;56.40
22031;BME280;11179;52.106;21.024;2023-02-26T07:42:38;99832.28;;;0.09;56.12
22031;BME280;11179;52.106;21.024;2023-02-26T07:45:03;99838.94;;;0.20;55.96
22031;BME280;11179;52.106;21.024;2023-02-26T07:47:29;99835.22;;;0.21;56.00
22031;BME280;11179;52.106;21.024;2023-02-26T07:49:55;99833.56;;;0.20;55.44
22031;BME280;11179;52.106;21.024;2023-02-26T07:52:20;99825.25;;;0.28;55.66
22031;BME280;11179;52.106;21.024;2023-02-26T07:54:46;99836.06;;;0.41;55.17
22031;BME280;11179;52.106;21.024;2023-02-26T07:57:11;99836.91;;;0.42;55.21
22031;BME280;11179;52.106;21.024;2023-02-26T07:59:36;99846.47;;;0.44;54.61
22031;BME280;11179;52.106;21.024;2023-02-26T08:02:02;99852.47;;;0.40;54.54
22031;BME280;11179;52.106;21.024;2023-02-26T08:04:27;99862.06;;;0.49;54.46
22031;BME280;11179;52.106;21.024;2023-02-26T08:06:53;99866.84;;;0.54;54.49
22031;BME280;11179;52.106;21.024;2023-02-26T08:09:19;99880.16;;;0.55;54.14
22031;BME280;11179;52.106;21.024;2023-02-26T08:11:45;99879.75;;;0.52;54.25
22031;BME280;11179;52.106;21.024;2023-02-26T08:14:12;99876.81;;;0.46;54.06
22031;BME280;11179;52.106;21.024;2023-02-26T08:16:37;99876.38;;;0.43;53.93
22031;BME280;11179;52.106;21.024;2023-02-26T08:19:03;99892.00;;;0.54;53.86
22031;BME280;11179;52.106;21.024;2023-02-26T08:21:28;99898.84;;;0.57;53.93
22031;BME280;11179;52.106;21.024;2023-02-26T08:23:53;99893.84;;;0.54;53.64
22031;BME280;11179;52.106;21.024;2023-02-26T08:26:19;99893.84;;;0.54;53.46
22031;BME280;11179;52.106;21.024;2023-02-26T08:28:44;99905.94;;;0.58;53.50
22031;BME280;11179;52.106;21.024;2023-02-26T08:31:11;99894.69;;;0.54;53.54
22031;BME280;11179;52.106;21.024;2023-02-26T08:33:37;99908.44;;;0.59;53.63
22031;BME280;11179;52.106;21.024;2023-02-26T08:36:03;99910.09;;;0.60;53.41
22031;BME280;11179;52.106;21.024;2023-02-26T08:38:29;99917.16;;;0.68;53.09
22031;BME280;11179;52.106;21.024;2023-02-26T08:40:54;99924.88;;;0.71;53.08
22031;BME280;11179;52.106;21.024;2023-02-26T08:43:20;99922.19;;;0.84;53.39
22031;BME280;11179;52.106;21.024;2023-02-26T08:45:46;99931.75;;;0.93;52.95
22031;BME280;11179;52.106;21.024;2023-02-26T08:48:12;99929.69;;;0.95;52.81
22031;BME280;11179;52.106;21.024;2023-02-26T08:50:37;99941.75;;;0.99;52.83
22031;BME280;11179;52.106;21.024;2023-02-26T08:53:04;99944.25;;;1.01;52.66
22031;BME280;11179;52.106;21.024;2023-02-26T08:55:30;99943.00;;;1.03;52.76
22031;BME280;11179;52.106;21.024;2023-02-26T08:57:55;99960.47;;;1.01;52.63
22031;BME280;11179;52.106;21.024;2023-02-26T09:00:21;99967.53;;;1.02;52.60
22031;BME280;11179;52.106;21.024;2023-02-26T09:02:46;99967.13;;;0.92;52.52
22031;BME280;11179;52.106;21.024;2023-02-26T09:05:12;99983.09;;;0.93;52.65
22031;BME280;11179;52.106;21.024;2023-02-26T09:07:39;99969.19;;;0.90;52.48
22031;BME280;11179;52.106;21.024;2023-02-26T09:10:05;99984.56;;;0.96;52.61
22031;BME280;11179;52.106;21.024;2023-02-26T09:12:32;99990.38;;;0.79;52.11
22031;BME280;11179;52.106;21.024;2023-02-26T09:15:00;100000.97;;;0.74;52.42
22031;BME280;11179;52.106;21.024;2023-02-26T09:17:25;99999.09;;;0.75;52.42
22031;BME280;11179;52.106;21.024;2023-02-26T09:19:50;100007.00;;;0.83;52.35
22031;BME280;11179;52.106;21.024;2023-02-26T09:22:16;100013.25;;;0.83;52.32
22031;BME280;11179;52.106;21.024;2023-02-26T09:24:41;100014.28;;;0.76;52.02
22031;BME280;11179;52.106;21.024;2023-02-26T09:27:06;100024.63;;;0.66;52.09
22031;BME280;11179;52.106;21.024;2023-02-26T09:29:32;100020.66;;;0.68;52.51
22031;BME280;11179;52.106;21.024;2023-02-26T09:31:57;100022.53;;;0.68;52.07
22031;BME280;11179;52.106;21.024;2023-02-26T09:34:22;100037.72;;;0.62;52.30
22031;BME280;11179;52.106;21.024;2023-02-26T09:36:48;100036.88;;;0.62;52.33
22031;BME280;11179;52.106;21.024;2023-02-26T09:39:16;100032.25;;;0.56;52.18
22031;BME280;11179;52.106;21.024;2023-02-26T09:41:42;100038.53;;;0.63;52.21
22031;BME280;11179;52.106;21.024;2023-02-26T09:44:16;100040.41;;;0.69;52.21
22031;BME280;11179;52.106;21.024;2023-02-26T09:49:46;100046.66;;;0.63;52.21
22031;BME280;11179;52.106;21.024;2023-02-26T09:54:49;100063.31;;;0.73;52.11
22031;BME280;11179;52.106;21.024;2023-02-26T09:57:45;100057.25;;;0.64;51.90
22031;BME280;11179;52.106;21.024;2023-02-26T10:00:17;100066.84;;;0.73;52.14
22031;BME280;11179;52.106;21.024;2023-02-26T10:06:15;100064.63;;;0.90;52.22
22031;BME280;11179;52.106;21.024;2023-02-26T10:08:26;100070.44;;;0.94;52.13
22031;BME280;11179;52.106;21.024;2023-02-26T10:11:11;100080.03;;;0.96;52.04
22031;BME280;11179;52.106;21.024;2023-02-26T10:13:49;100080.06;;;1.03;52.01
22031;BME280;11179;52.106;21.024;2023-02-26T10:16:22;100086.50;;;1.08;52.08
22031;BME280;11179;52.106;21.024;2023-02-26T10:18:54;100090.88;;;1.09;52.07
22031;BME280;11179;52.106;21.024;2023-02-26T10:21:31;100091.06;;;1.08;51.80
22031;BME280;11179;52.106;21.024;2023-02-26T10:24:01;100094.81;;;1.07;52.15
22031;BME280;11179;52.106;21.024;2023-02-26T10:26:44;100095.69;;;1.14;52.06
22031;BME280;11179;52.106;21.024;2023-02-26T10:29:20;100098.19;;;1.15;51.98
22031;BME280;11179;52.106;21.024;2023-02-26T10:34:38;100105.66;;;1.13;52.24
22031;BME280;11179;52.106;21.024;2023-02-26T10:40:03;100114.38;;;1.09;52.56
22031;BME280;11179;52.106;21.024;2023-02-26T10:51:11;100139.16;;;1.12;52.54
22031;BME280;11179;52.106;21.024;2023-02-26T10:53:37;100138.91;;;1.07;52.77
22031;BME280;11179;52.106;21.024;2023-02-26T10:56:26;100146.19;;;1.07;52.94
22031;BME280;11179;52.106;21.024;2023-02-26T10:58:53;100146.00;;;1.08;53.06
22031;BME280;11179;52.106;21.024;2023-02-26T11:01:21;100152.28;;;1.15;53.31
22031;BME280;11179;52.106;21.024;2023-02-26T11:03:50;100151.03;;;1.18;53.19
22031;BME280;11179;52.106;21.024;2023-02-26T11:06:27;100152.03;;;1.10;53.28
22031;BME280;11179;52.106;21.024;2023-02-26T11:08:55;100159.88;;;0.99;53.38
22031;BME280;11179;52.106;21.024;2023-02-26T11:11:50;100161.50;;;0.93;53.83
22031;BME280;11179;52.106;21.024;2023-02-26T11:14:15;100164.63;;;0.90;53.95
22031;BME280;11179;52.106;21.024;2023-02-26T11:16:55;100173.38;;;0.92;54.27
22031;BME280;11179;52.106;21.024;2023-02-26T11:19:34;100165.69;;;0.89;53.94
22031;BME280;11179;52.106;21.024;2023-02-26T11:22:01;100166.06;;;0.86;53.98
22031;BME280;11179;52.106;21.024;2023-02-26T11:26:57;100171.09;;;0.89;53.91
22031;BME280;11179;52.106;21.024;2023-02-26T11:29:24;100175.66;;;0.95;53.78
22031;BME280;11179;52.106;21.024;2023-02-26T11:31:51;100172.19;;;1.01;53.53
22031;BME280;11179;52.106;21.024;2023-02-26T11:34:21;100175.53;;;1.10;53.44
22031;BME280;11179;52.106;21.024;2023-02-26T11:36:48;100175.53;;;1.10;53.00
22031;BME280;11179;52.106;21.024;2023-02-26T11:39:17;100180.34;;;1.21;52.83
22031;BME280;11179;52.106;21.024;2023-02-26T11:41:46;100188.31;;;1.36;52.49
22031;BME280;11179;52.106;21.024;2023-02-26T11:44:15;100197.75;;;1.53;51.81
22031;BME280;11179;52.106;21.024;2023-02-26T11:46:55;100191.94;;;1.56;51.31
22031;BME280;11179;52.106;21.024;2023-02-26T11:49:23;100204.88;;;1.67;51.26
22031;BME280;11179;52.106;21.024;2023-02-26T11:54:37;100216.38;;;1.89;50.81
22031;BME280;11179;52.106;21.024;2023-02-26T11:57:15;100218.44;;;1.87;50.27
22031;BME280;11179;52.106;21.024;2023-02-26T11:59:44;100228.03;;;1.83;50.48
22031;BME280;11179;52.106;21.024;2023-02-26T12:02:13;100221.75;;;1.76;50.13
22031;BME280;11179;52.106;21.024;2023-02-26T12:04:42;100223.63;;;1.69;50.13
22031;BME280;11179;52.106;21.024;2023-02-26T12:07:12;100231.09;;;1.67;49.91
22031;BME280;11179;52.106;21.024;2023-02-26T12:09:38;100228.59;;;1.65;50.00
22031;BME280;11179;52.106;21.024;2023-02-26T12:23:47;100248.56;;;1.57;49.19
22031;BME280;11179;52.106;21.024;2023-02-26T12:29:14;100260.63;;;1.62;49.14
22031;BME280;11179;52.106;21.024;2023-02-26T12:39:35;100265.19;;;1.54;49.52
22031;BME280;11179;52.106;21.024;2023-02-26T12:45:10;100272.28;;;1.62;49.34
22031;BME280;11179;52.106;21.024;2023-02-26T12:53:35;100284.53;;;1.99;49.39
22031;BME280;11179;52.106;21.024;2023-02-26T12:58:55;100287.00;;;2.01;49.28
22031;BME280;11179;52.106;21.024;2023-02-26T13:13:17;100289.06;;;1.85;49.53
22031;BME280;11179;52.106;21.024;2023-02-26T13:16:22;100292.59;;;1.86;49.51
22031;BME280;11179;52.106;21.024;2023-02-26T13:21:40;100294.63;;;1.77;49.41
22031;BME280;11179;52.106;21.024;2023-02-26T13:24:17;100307.38;;;1.83;49.41
22031;BME280;11179;52.106;21.024;2023-02-26T13:26:46;100304.88;;;1.88;49.41
22031;BME280;11179;52.106;21.024;2023-02-26T13:29:18;100306.16;;;1.92;49.30
22031;BME280;11179;52.106;21.024;2023-02-26T13:31:59;100314.50;;;1.98;48.72
22031;BME280;11179;52.106;21.024;2023-02-26T13:34:41;100313.47;;;1.99;48.51
22031;BME280;11179;52.106;21.024;2023-02-26T13:37:22;100312.41;;;2.00;47.89
22031;BME280;11179;52.106;21.024;2023-02-26T13:40:03;100326.78;;;1.93;47.80
22031;BME280;11179;52.106;21.024;2023-02-26T13:42:37;100324.25;;;1.85;47.41
22031;BME280;11179;52.106;21.024;2023-02-26T13:48:16;100328.59;;;1.86;47.57
22031;BME280;11179;52.106;21.024;2023-02-26T13:56:15;100334.00;;;1.80;47.42
22031;BME280;11179;52.106;21.024;2023-02-26T13:58:50;100333.16;;;1.79;47.82
22031;BME280;11179;52.106;21.024;2023-02-26T14:01:19;100336.06;;;1.78;47.29
22031;BME280;11179;52.106;21.024;2023-02-26T14:16:52;100341.78;;;2.03;47.03
22031;BME280;11179;52.106;21.024;2023-02-26T14:19:22;100355.56;;;2.08;47.00
22031;BME280;11179;52.106;21.024;2023-02-26T14:21:49;100354.53;;;2.09;46.89
22031;BME280;11179;52.106;21.024;2023-02-26T14:24:28;100346.19;;;2.04;47.11
22031;BME280;11179;52.106;21.024;2023-02-26T14:29:59;100358.09;;;2.16;46.81
22031;BME280;11179;52.106;21.024;2023-02-26T14:33:05;100357.44;;;2.07;46.61
22031;BME280;11179;52.106;21.024;2023-02-26T14:35:43;100360.09;;;2.01;46.95
22031;BME280;11179;52.106;21.024;2023-02-26T14:38:19;100364.94;;;1.99;47.07
22031;BME280;11179;52.106;21.024;2023-02-26T14:40:47;100374.94;;;2.05;47.06
22031;BME280;11179;52.106;21.024;2023-02-26T14:43:21;100366.16;;;2.03;47.06
22031;BME280;11179;52.106;21.024;2023-02-26T14:45:49;100382.84;;;2.06;47.22
22031;BME280;11179;52.106;21.024;2023-02-26T14:48:21;100386.16;;;2.02;47.25
22031;BME280;11179;52.106;21.024;2023-02-26T14:53:45;100387.38;;;1.92;47.10
22031;BME280;11179;52.106;21.024;2023-02-26T15:01:49;100396.53;;;1.91;47.39
22031;BME280;11179;52.106;21.024;2023-02-26T15:07:11;100407.38;;;1.91;47.27
22031;BME280;11179;52.106;21.024;2023-02-26T15:09:46;100413.63;;;1.92;47.18
22031;BME280;11179;52.106;21.024;2023-02-26T15:15:26;100409.81;;;1.80;47.54
22031;BME280;11179;52.106;21.024;2023-02-26T15:23:38;100421.66;;;1.79;47.78
22031;BME280;11179;52.106;21.024;2023-02-26T15:26:25;100434.38;;;1.78;47.86
22031;BME280;11179;52.106;21.024;2023-02-26T15:28:52;100436.88;;;1.80;47.73
22031;BME280;11179;52.106;21.024;2023-02-26T15:31:20;100443.56;;;1.84;47.85
22031;BME280;11179;52.106;21.024;2023-02-26T15:33:48;100447.25;;;1.76;47.93
22031;BME280;11179;52.106;21.024;2023-02-26T15:36:16;100445.00;;;1.80;48.15
22031;BME280;11179;52.106;21.024;2023-02-26T15:38:48;100442.94;;;1.82;48.13
22031;BME280;11179;52.106;21.024;2023-02-26T15:41:15;100449.00;;;1.84;48.27
22031;BME280;11179;52.106;21.024;2023-02-26T15:43:47;100447.13;;;1.84;48.79
22031;BME280;11179;52.106;21.024;2023-02-26T15:46:14;100446.28;;;1.84;48.82
22031;BME280;11179;52.106;21.024;2023-02-26T15:48:40;100444.81;;;1.81;49.18